sensor_id;sensor_type;location;lat;lon;timestamp;P1;durP1;ratioP1;P2;durP2;ratioP2
54853;SDS011;40747;49.480;8.658;2023-02-15T00:01:32;12.75;;;6.65;;
54853;SDS011;40747;49.480;8.658;2023-02-15T00:03:58;15.98;;;7.32;;
54853;SDS011;40747;49.480;8.658;2023-02-15T00:06:23;13.63;;;8.18;;
54853;SDS011;40747;49.480;8.658;2023-02-15T00:08:48;9.88;;;6.47;;
54853;SDS011;40747;49.480;8.658;2023-02-15T00:11:15;8.95;;;6.85;;
54853;SDS011;40747;49.480;8.658;2023-02-15T00:14:02;19.30;;;7.40;;
54853;SDS011;40747;49.480;8.658;2023-02-15T00:16:28;7.80;;;5.82;;
54853;SDS011;40747;49.480;8.658;2023-02-15T00:18:53;18.85;;;7.53;;
54853;SDS011;40747;49.480;8.658;2023-02-15T00:21:18;13.75;;;6.82;;
54853;SDS011;40747;49.480;8.658;2023-02-15T00:23:44;13.52;;;6.85;;
54853;SDS011;40747;49.480;8.658;2023-02-15T00:26:10;21.83;;;10.88;;
54853;SDS011;40747;49.480;8.658;2023-02-15T00:28:36;13.20;;;7.35;;
54853;SDS011;40747;49.480;8.658;2023-02-15T00:31:06;19.25;;;12.98;;
54853;SDS011;40747;49.480;8.658;2023-02-15T00:33:33;23.20;;;6.95;;
54853;SDS011;40747;49.480;8.658;2023-02-15T00:35:59;16.42;;;8.57;;
54853;SDS011;40747;49.480;8.658;2023-02-15T00:38:26;10.40;;;6.85;;
54853;SDS011;40747;49.480;8.658;2023-02-15T00:40:53;19.65;;;9.50;;
54853;SDS011;40747;49.480;8.658;2023-02-15T00:43:19;14.73;;;6.47;;
54853;SDS011;40747;49.480;8.658;2023-02-15T00:45:45;7.88;;;5.78;;
54853;SDS011;40747;49.480;8.658;2023-02-15T00:48:11;14.20;;;8.07;;
54853;SDS011;40747;49.480;8.658;2023-02-15T00:50:36;14.82;;;8.02;;
54853;SDS011;40747;49.480;8.658;2023-02-15T00:53:02;19.60;;;9.15;;
54853;SDS011;40747;49.480;8.658;2023-02-15T00:55:27;18.90;;;8.48;;
54853;SDS011;40747;49.480;8.658;2023-02-15T00:57:52;13.50;;;8.07;;
54853;SDS011;40747;49.480;8.658;2023-02-15T01:00:18;11.02;;;5.50;;
54853;SDS011;40747;49.480;8.658;2023-02-15T01:02:43;7.82;;;5.45;;
54853;SDS011;40747;49.480;8.658;2023-02-15T01:05:08;17.55;;;5.97;;
54853;SDS011;40747;49.480;8.658;2023-02-15T01:07:33;11.57;;;8.35;;
54853;SDS011;40747;49.480;8.658;2023-02-15T01:09:59;13.95;;;7.82;;
54853;SDS011;40747;49.480;8.658;2023-02-15T01:12:24;15.80;;;7.00;;
54853;SDS011;40747;49.480;8.658;2023-02-15T01:14:49;14.23;;;8.13;;
54853;SDS011;40747;49.480;8.658;2023-02-15T01:17:14;12.88;;;7.07;;
54853;SDS011;40747;49.480;8.658;2023-02-15T01:19:40;9.25;;;6.47;;
54853;SDS011;40747;49.480;8.658;2023-02-15T01:22:05;11.23;;;6.20;;
54853;SDS011;40747;49.480;8.658;2023-02-15T01:24:30;18.60;;;7.25;;
54853;SDS011;40747;49.480;8.658;2023-02-15T01:26:56;18.85;;;8.90;;
54853;SDS011;40747;49.480;8.658;2023-02-15T01:29:21;9.15;;;6.07;;
54853;SDS011;40747;49.480;8.658;2023-02-15T01:31:46;12.75;;;7.60;;
54853;SDS011;40747;49.480;8.658;2023-02-15T01:34:11;14.90;;;6.10;;
54853;SDS011;40747;49.480;8.658;2023-02-15T01:36:37;10.32;;;6.00;;
54853;SDS011;40747;49.480;8.658;2023-02-15T01:39:02;11.25;;;6.93;;
54853;SDS011;40747;49.480;8.658;2023-02-15T01:41:27;12.98;;;7.60;;
54853;SDS011;40747;49.480;8.658;2023-02-15T01:46:21;8.48;;;5.75;;
54853;SDS011;40747;49.480;8.658;2023-02-15T01:48:54;5.60;;;3.38;;
54853;SDS011;40747;49.480;8.658;2023-02-15T01:51:29;7.80;;;4.90;;
54853;SDS011;40747;49.480;8.658;2023-02-15T01:53:59;5.80;;;5.13;;
54853;SDS011;40747;49.480;8.658;2023-02-15T01:56:31;16.75;;;7.28;;
54853;SDS011;40747;49.480;8.658;2023-02-15T01:59:00;9.82;;;6.18;;
54853;SDS011;40747;49.480;8.658;2023-02-15T02:01:30;5.35;;;3.65;;
54853;SDS011;40747;49.480;8.658;2023-02-15T02:03:58;10.23;;;6.10;;
54853;SDS011;40747;49.480;8.658;2023-02-15T02:06:40;11.50;;;6.90;;
54853;SDS011;40747;49.480;8.658;2023-02-15T02:09:06;8.07;;;5.40;;
54853;SDS011;40747;49.480;8.658;2023-02-15T02:11:32;5.40;;;3.85;;
54853;SDS011;40747;49.480;8.658;2023-02-15T02:13:58;10.48;;;6.65;;
54853;SDS011;40747;49.480;8.658;2023-02-15T02:34:14;7.63;;;6.18;;
54853;SDS011;40747;49.480;8.658;2023-02-15T02:36:49;9.55;;;3.92;;
54853;SDS011;40747;49.480;8.658;2023-02-15T02:47:53;10.57;;;5.80;;
54853;SDS011;40747;49.480;8.658;2023-02-15T02:50:26;11.48;;;6.88;;
54853;SDS011;40747;49.480;8.658;2023-02-15T02:52:54;10.05;;;5.40;;
54853;SDS011;40747;49.480;8.658;2023-02-15T03:00:39;10.23;;;6.40;;
54853;SDS011;40747;49.480;8.658;2023-02-15T03:06:12;16.05;;;7.18;;
54853;SDS011;40747;49.480;8.658;2023-02-15T03:08:47;9.57;;;4.40;;
54853;SDS011;40747;49.480;8.658;2023-02-15T03:11:16;9.45;;;5.22;;
54853;SDS011;40747;49.480;8.658;2023-02-15T03:13:41;12.07;;;5.45;;
54853;SDS011;40747;49.480;8.658;2023-02-15T03:16:10;9.35;;;4.85;;
54853;SDS011;40747;49.480;8.658;2023-02-15T03:24:23;11.90;;;5.10;;
54853;SDS011;40747;49.480;8.658;2023-02-15T03:26:54;6.50;;;5.05;;
54853;SDS011;40747;49.480;8.658;2023-02-15T03:29:21;7.45;;;5.28;;
54853;SDS011;40747;49.480;8.658;2023-02-15T03:31:51;8.60;;;4.75;;
54853;SDS011;40747;49.480;8.658;2023-02-15T03:34:21;10.45;;;5.70;;
54853;SDS011;40747;49.480;8.658;2023-02-15T03:36:50;8.35;;;5.22;;
54853;SDS011;40747;49.480;8.658;2023-02-15T03:42:03;11.20;;;5.10;;
54853;SDS011;40747;49.480;8.658;2023-02-15T03:44:31;21.85;;;6.70;;
54853;SDS011;40747;49.480;8.658;2023-02-15T03:47:04;10.07;;;5.22;;
54853;SDS011;40747;49.480;8.658;2023-02-15T03:49:38;10.80;;;6.65;;
54853;SDS011;40747;49.480;8.658;2023-02-15T03:52:09;9.10;;;5.63;;
54853;SDS011;40747;49.480;8.658;2023-02-15T03:54:37;12.70;;;7.55;;
54853;SDS011;40747;49.480;8.658;2023-02-15T03:57:16;17.23;;;7.55;;
54853;SDS011;40747;49.480;8.658;2023-02-15T04:00:05;10.20;;;5.60;;
54853;SDS011;40747;49.480;8.658;2023-02-15T04:03:05;10.38;;;6.85;;
54853;SDS011;40747;49.480;8.658;2023-02-15T04:05:36;20.08;;;6.85;;
54853;SDS011;40747;49.480;8.658;2023-02-15T04:08:01;9.90;;;5.50;;
54853;SDS011;40747;49.480;8.658;2023-02-15T04:10:27;10.82;;;7.50;;
54853;SDS011;40747;49.480;8.658;2023-02-15T04:13:10;6.22;;;4.78;;
54853;SDS011;40747;49.480;8.658;2023-02-15T04:15:36;12.35;;;7.93;;
54853;SDS011;40747;49.480;8.658;2023-02-15T04:18:20;16.25;;;6.85;;
54853;SDS011;40747;49.480;8.658;2023-02-15T04:20:45;12.07;;;6.15;;
54853;SDS011;40747;49.480;8.658;2023-02-15T04:23:30;14.68;;;8.23;;
54853;SDS011;40747;49.480;8.658;2023-02-15T04:26:15;11.25;;;5.32;;
54853;SDS011;40747;49.480;8.658;2023-02-15T04:28:41;13.25;;;6.78;;
54853;SDS011;40747;49.480;8.658;2023-02-15T04:31:06;15.18;;;7.75;;
54853;SDS011;40747;49.480;8.658;2023-02-15T04:33:32;10.73;;;5.90;;
54853;SDS011;40747;49.480;8.658;2023-02-15T04:35:57;14.65;;;7.25;;
54853;SDS011;40747;49.480;8.658;2023-02-15T04:38:22;17.48;;;7.15;;
54853;SDS011;40747;49.480;8.658;2023-02-15T04:40:51;8.60;;;5.55;;
54853;SDS011;40747;49.480;8.658;2023-02-15T04:43:17;18.83;;;7.15;;
54853;SDS011;40747;49.480;8.658;2023-02-15T04:45:47;9.02;;;5.25;;
54853;SDS011;40747;49.480;8.658;2023-02-15T04:48:14;14.20;;;7.43;;
54853;SDS011;40747;49.480;8.658;2023-02-15T04:50:39;14.80;;;6.25;;
54853;SDS011;40747;49.480;8.658;2023-02-15T04:53:04;9.32;;;4.65;;
54853;SDS011;40747;49.480;8.658;2023-02-15T04:55:29;13.13;;;7.30;;
54853;SDS011;40747;49.480;8.658;2023-02-15T04:57:55;12.45;;;7.10;;
54853;SDS011;40747;49.480;8.658;2023-02-15T05:00:20;12.02;;;5.72;;
54853;SDS011;40747;49.480;8.658;2023-02-15T05:02:45;15.45;;;7.15;;
54853;SDS011;40747;49.480;8.658;2023-02-15T05:05:10;7.38;;;5.85;;
54853;SDS011;40747;49.480;8.658;2023-02-15T05:07:37;11.77;;;7.05;;
54853;SDS011;40747;49.480;8.658;2023-02-15T05:10:03;6.45;;;4.45;;
54853;SDS011;40747;49.480;8.658;2023-02-15T05:12:28;6.97;;;5.10;;
54853;SDS011;40747;49.480;8.658;2023-02-15T05:14:54;9.18;;;5.95;;
54853;SDS011;40747;49.480;8.658;2023-02-15T05:17:19;9.63;;;4.20;;
54853;SDS011;40747;49.480;8.658;2023-02-15T05:19:44;8.13;;;3.67;;
54853;SDS011;40747;49.480;8.658;2023-02-15T05:22:10;12.23;;;5.75;;
54853;SDS011;40747;49.480;8.658;2023-02-15T05:24:35;10.27;;;7.15;;
54853;SDS011;40747;49.480;8.658;2023-02-15T05:30:02;15.00;;;6.25;;
54853;SDS011;40747;49.480;8.658;2023-02-15T05:32:28;12.43;;;6.35;;
54853;SDS011;40747;49.480;8.658;2023-02-15T05:34:53;11.07;;;7.25;;
54853;SDS011;40747;49.480;8.658;2023-02-15T05:37:19;7.63;;;5.07;;
54853;SDS011;40747;49.480;8.658;2023-02-15T05:39:44;11.05;;;7.32;;
54853;SDS011;40747;49.480;8.658;2023-02-15T05:42:09;13.80;;;7.13;;
54853;SDS011;40747;49.480;8.658;2023-02-15T05:44:34;23.95;;;11.25;;
54853;SDS011;40747;49.480;8.658;2023-02-15T05:47:00;26.08;;;11.15;;
54853;SDS011;40747;49.480;8.658;2023-02-15T05:49:25;35.83;;;12.60;;
54853;SDS011;40747;49.480;8.658;2023-02-15T05:51:50;27.60;;;11.40;;
54853;SDS011;40747;49.480;8.658;2023-02-15T05:54:15;29.63;;;12.40;;
54853;SDS011;40747;49.480;8.658;2023-02-15T05:56:41;31.20;;;12.32;;
54853;SDS011;40747;49.480;8.658;2023-02-15T05:59:06;22.25;;;10.35;;
54853;SDS011;40747;49.480;8.658;2023-02-15T06:01:31;37.10;;;13.68;;
54853;SDS011;40747;49.480;8.658;2023-02-15T06:03:57;24.05;;;11.50;;
54853;SDS011;40747;49.480;8.658;2023-02-15T06:06:22;30.27;;;11.13;;
54853;SDS011;40747;49.480;8.658;2023-02-15T06:08:47;27.45;;;11.63;;
54853;SDS011;40747;49.480;8.658;2023-02-15T06:11:13;30.13;;;12.65;;
54853;SDS011;40747;49.480;8.658;2023-02-15T06:13:38;39.28;;;13.43;;
54853;SDS011;40747;49.480;8.658;2023-02-15T06:16:04;38.80;;;13.10;;
54853;SDS011;40747;49.480;8.658;2023-02-15T06:18:30;35.50;;;13.27;;
54853;SDS011;40747;49.480;8.658;2023-02-15T06:20:55;36.75;;;13.70;;
54853;SDS011;40747;49.480;8.658;2023-02-15T06:23:20;41.53;;;15.95;;
54853;SDS011;40747;49.480;8.658;2023-02-15T06:25:46;32.72;;;13.18;;
54853;SDS011;40747;49.480;8.658;2023-02-15T06:28:11;29.80;;;14.23;;
54853;SDS011;40747;49.480;8.658;2023-02-15T06:30:37;36.70;;;14.68;;
54853;SDS011;40747;49.480;8.658;2023-02-15T06:33:02;33.65;;;13.70;;
54853;SDS011;40747;49.480;8.658;2023-02-15T06:35:27;12.00;;;5.90;;
54853;SDS011;40747;49.480;8.658;2023-02-15T06:37:53;9.48;;;6.60;;
54853;SDS011;40747;49.480;8.658;2023-02-15T06:40:18;11.30;;;6.10;;
54853;SDS011;40747;49.480;8.658;2023-02-15T06:42:43;9.20;;;5.10;;
54853;SDS011;40747;49.480;8.658;2023-02-15T06:45:09;12.68;;;5.70;;
54853;SDS011;40747;49.480;8.658;2023-02-15T06:47:35;11.50;;;7.78;;
54853;SDS011;40747;49.480;8.658;2023-02-15T06:50:01;9.10;;;5.88;;
54853;SDS011;40747;49.480;8.658;2023-02-15T06:52:26;15.43;;;5.28;;
54853;SDS011;40747;49.480;8.658;2023-02-15T06:54:53;11.10;;;6.03;;
54853;SDS011;40747;49.480;8.658;2023-02-15T06:57:18;12.02;;;6.10;;
54853;SDS011;40747;49.480;8.658;2023-02-15T06:59:43;9.82;;;6.63;;
54853;SDS011;40747;49.480;8.658;2023-02-15T07:02:10;12.95;;;6.70;;
54853;SDS011;40747;49.480;8.658;2023-02-15T07:04:36;4.82;;;3.22;;
54853;SDS011;40747;49.480;8.658;2023-02-15T07:07:02;10.95;;;6.30;;
54853;SDS011;40747;49.480;8.658;2023-02-15T07:09:27;8.30;;;5.32;;
54853;SDS011;40747;49.480;8.658;2023-02-15T07:11:53;9.80;;;6.57;;
54853;SDS011;40747;49.480;8.658;2023-02-15T07:14:36;5.28;;;4.40;;
54853;SDS011;40747;49.480;8.658;2023-02-15T07:17:02;9.00;;;5.60;;
54853;SDS011;40747;49.480;8.658;2023-02-15T07:19:27;8.30;;;6.30;;
54853;SDS011;40747;49.480;8.658;2023-02-15T07:21:52;6.32;;;5.03;;
54853;SDS011;40747;49.480;8.658;2023-02-15T07:24:18;8.60;;;5.78;;
54853;SDS011;40747;49.480;8.658;2023-02-15T07:26:43;9.48;;;6.60;;
54853;SDS011;40747;49.480;8.658;2023-02-15T07:29:08;10.27;;;5.82;;
54853;SDS011;40747;49.480;8.658;2023-02-15T07:31:34;10.10;;;7.07;;
54853;SDS011;40747;49.480;8.658;2023-02-15T07:33:59;9.07;;;5.50;;
54853;SDS011;40747;49.480;8.658;2023-02-15T07:36:25;12.95;;;4.82;;
54853;SDS011;40747;49.480;8.658;2023-02-15T07:38:50;11.13;;;5.57;;
54853;SDS011;40747;49.480;8.658;2023-02-15T07:41:15;12.77;;;6.50;;
54853;SDS011;40747;49.480;8.658;2023-02-15T07:43:42;7.85;;;4.63;;
54853;SDS011;40747;49.480;8.658;2023-02-15T07:46:10;11.07;;;7.10;;
54853;SDS011;40747;49.480;8.658;2023-02-15T07:48:38;13.88;;;6.47;;
54853;SDS011;40747;49.480;8.658;2023-02-15T07:51:04;8.75;;;5.30;;
54853;SDS011;40747;49.480;8.658;2023-02-15T07:53:32;13.10;;;5.85;;
54853;SDS011;40747;49.480;8.658;2023-02-15T07:55:58;10.45;;;7.60;;
54853;SDS011;40747;49.480;8.658;2023-02-15T07:58:24;12.80;;;6.60;;
54853;SDS011;40747;49.480;8.658;2023-02-15T08:01:10;7.82;;;4.65;;
54853;SDS011;40747;49.480;8.658;2023-02-15T08:03:35;9.77;;;6.30;;
54853;SDS011;40747;49.480;8.658;2023-02-15T08:06:00;12.15;;;7.32;;
54853;SDS011;40747;49.480;8.658;2023-02-15T08:08:26;9.35;;;5.72;;
54853;SDS011;40747;49.480;8.658;2023-02-15T08:11:02;12.20;;;7.35;;
54853;SDS011;40747;49.480;8.658;2023-02-15T08:13:48;14.60;;;6.03;;
54853;SDS011;40747;49.480;8.658;2023-02-15T08:16:22;8.27;;;6.25;;
54853;SDS011;40747;49.480;8.658;2023-02-15T08:18:55;11.25;;;6.55;;
54853;SDS011;40747;49.480;8.658;2023-02-15T08:21:21;11.45;;;5.38;;
54853;SDS011;40747;49.480;8.658;2023-02-15T08:23:46;10.18;;;5.82;;
54853;SDS011;40747;49.480;8.658;2023-02-15T08:26:12;12.43;;;6.28;;
54853;SDS011;40747;49.480;8.658;2023-02-15T08:28:38;7.90;;;4.00;;
54853;SDS011;40747;49.480;8.658;2023-02-15T08:31:07;10.20;;;5.90;;
54853;SDS011;40747;49.480;8.658;2023-02-15T08:33:35;17.27;;;7.93;;
54853;SDS011;40747;49.480;8.658;2023-02-15T08:36:02;16.67;;;7.68;;
54853;SDS011;40747;49.480;8.658;2023-02-15T08:38:32;10.32;;;7.20;;
54853;SDS011;40747;49.480;8.658;2023-02-15T08:40:58;11.05;;;6.18;;
54853;SDS011;40747;49.480;8.658;2023-02-15T08:43:33;8.52;;;4.57;;
54853;SDS011;40747;49.480;8.658;2023-02-15T08:45:59;11.32;;;8.27;;
54853;SDS011;40747;49.480;8.658;2023-02-15T08:48:24;12.65;;;5.72;;
54853;SDS011;40747;49.480;8.658;2023-02-15T08:50:49;11.23;;;6.13;;
54853;SDS011;40747;49.480;8.658;2023-02-15T08:53:14;15.30;;;7.40;;
54853;SDS011;40747;49.480;8.658;2023-02-15T08:55:40;11.45;;;7.45;;
54853;SDS011;40747;49.480;8.658;2023-02-15T08:58:05;13.93;;;7.35;;
54853;SDS011;40747;49.480;8.658;2023-02-15T09:00:30;16.00;;;8.40;;
54853;SDS011;40747;49.480;8.658;2023-02-15T09:02:56;19.77;;;8.50;;
54853;SDS011;40747;49.480;8.658;2023-02-15T09:05:21;16.92;;;7.30;;
54853;SDS011;40747;49.480;8.658;2023-02-15T09:07:46;8.57;;;6.72;;
54853;SDS011;40747;49.480;8.658;2023-02-15T09:10:12;14.20;;;6.43;;
54853;SDS011;40747;49.480;8.658;2023-02-15T09:12:37;17.48;;;8.82;;
54853;SDS011;40747;49.480;8.658;2023-02-15T09:15:02;11.80;;;7.85;;
54853;SDS011;40747;49.480;8.658;2023-02-15T09:17:28;17.85;;;9.35;;
54853;SDS011;40747;49.480;8.658;2023-02-15T09:19:53;13.50;;;7.38;;
54853;SDS011;40747;49.480;8.658;2023-02-15T09:22:18;15.70;;;7.30;;
54853;SDS011;40747;49.480;8.658;2023-02-15T09:24:44;21.25;;;8.50;;
54853;SDS011;40747;49.480;8.658;2023-02-15T09:27:09;20.70;;;11.45;;
54853;SDS011;40747;49.480;8.658;2023-02-15T09:29:34;9.27;;;4.25;;
54853;SDS011;40747;49.480;8.658;2023-02-15T09:32:00;10.40;;;6.70;;
54853;SDS011;40747;49.480;8.658;2023-02-15T09:34:25;11.63;;;7.68;;
54853;SDS011;40747;49.480;8.658;2023-02-15T09:36:51;22.52;;;10.10;;
54853;SDS011;40747;49.480;8.658;2023-02-15T09:39:18;16.65;;;8.20;;
54853;SDS011;40747;49.480;8.658;2023-02-15T09:44:20;19.55;;;9.20;;
54853;SDS011;40747;49.480;8.658;2023-02-15T09:49:42;14.27;;;8.63;;
54853;SDS011;40747;49.480;8.658;2023-02-15T09:54:58;10.00;;;6.50;;
54853;SDS011;40747;49.480;8.658;2023-02-15T10:03:11;14.73;;;8.75;;
54853;SDS011;40747;49.480;8.658;2023-02-15T10:05:53;12.88;;;7.95;;
54853;SDS011;40747;49.480;8.658;2023-02-15T10:14:15;14.90;;;6.97;;
54853;SDS011;40747;49.480;8.658;2023-02-15T10:19:35;5.32;;;3.47;;
54853;SDS011;40747;49.480;8.658;2023-02-15T10:22:19;12.70;;;7.28;;
54853;SDS011;40747;49.480;8.658;2023-02-15T10:27:47;22.02;;;9.15;;
54853;SDS011;40747;49.480;8.658;2023-02-15T10:30:15;17.20;;;8.80;;
54853;SDS011;40747;49.480;8.658;2023-02-15T10:32:48;13.05;;;6.90;;
54853;SDS011;40747;49.480;8.658;2023-02-15T10:35:48;12.55;;;7.10;;
54853;SDS011;40747;49.480;8.658;2023-02-15T10:38:32;15.13;;;9.02;;
54853;SDS011;40747;49.480;8.658;2023-02-15T10:41:17;12.02;;;7.22;;
54853;SDS011;40747;49.480;8.658;2023-02-15T10:47:21;15.07;;;7.72;;
54853;SDS011;40747;49.480;8.658;2023-02-15T10:53:04;15.60;;;8.95;;
54853;SDS011;40747;49.480;8.658;2023-02-15T10:55:47;27.50;;;10.73;;
54853;SDS011;40747;49.480;8.658;2023-02-15T11:06:29;21.70;;;8.25;;
54853;SDS011;40747;49.480;8.658;2023-02-15T11:09:02;18.05;;;10.05;;
54853;SDS011;40747;49.480;8.658;2023-02-15T11:11:31;15.38;;;8.68;;
54853;SDS011;40747;49.480;8.658;2023-02-15T11:14:02;21.55;;;12.02;;
54853;SDS011;40747;49.480;8.658;2023-02-15T11:16:36;22.42;;;10.48;;
54853;SDS011;40747;49.480;8.658;2023-02-15T11:19:08;17.90;;;9.02;;
54853;SDS011;40747;49.480;8.658;2023-02-15T11:21:39;14.75;;;10.77;;
54853;SDS011;40747;49.480;8.658;2023-02-15T11:24:10;12.15;;;7.10;;
54853;SDS011;40747;49.480;8.658;2023-02-15T11:26:38;20.13;;;10.13;;
54853;SDS011;40747;49.480;8.658;2023-02-15T11:29:23;23.48;;;10.77;;
54853;SDS011;40747;49.480;8.658;2023-02-15T11:31:54;27.25;;;12.73;;
54853;SDS011;40747;49.480;8.658;2023-02-15T11:37:37;10.75;;;7.03;;
54853;SDS011;40747;49.480;8.658;2023-02-15T11:40:22;16.58;;;9.80;;
54853;SDS011;40747;49.480;8.658;2023-02-15T11:42:56;24.38;;;11.73;;
54853;SDS011;40747;49.480;8.658;2023-02-15T11:45:30;17.08;;;9.30;;
54853;SDS011;40747;49.480;8.658;2023-02-15T11:47:58;17.90;;;9.15;;
54853;SDS011;40747;49.480;8.658;2023-02-15T11:50:25;16.42;;;9.45;;
54853;SDS011;40747;49.480;8.658;2023-02-15T11:52:54;16.05;;;9.10;;
54853;SDS011;40747;49.480;8.658;2023-02-15T11:55:23;22.95;;;11.02;;
54853;SDS011;40747;49.480;8.658;2023-02-15T12:00:43;22.52;;;9.80;;
54853;SDS011;40747;49.480;8.658;2023-02-15T12:03:16;16.55;;;10.10;;
54853;SDS011;40747;49.480;8.658;2023-02-15T12:06:01;24.05;;;11.52;;
54853;SDS011;40747;49.480;8.658;2023-02-15T12:08:34;24.30;;;10.75;;
54853;SDS011;40747;49.480;8.658;2023-02-15T12:11:09;19.75;;;9.85;;
54853;SDS011;40747;49.480;8.658;2023-02-15T12:13:56;19.35;;;11.07;;
54853;SDS011;40747;49.480;8.658;2023-02-15T12:16:23;23.08;;;11.07;;
54853;SDS011;40747;49.480;8.658;2023-02-15T12:18:49;22.67;;;11.90;;
54853;SDS011;40747;49.480;8.658;2023-02-15T12:21:26;21.85;;;12.23;;
54853;SDS011;40747;49.480;8.658;2023-02-15T12:24:18;20.48;;;10.02;;
54853;SDS011;40747;49.480;8.658;2023-02-15T12:27:03;26.75;;;10.57;;
54853;SDS011;40747;49.480;8.658;2023-02-15T12:29:34;20.02;;;11.27;;
54853;SDS011;40747;49.480;8.658;2023-02-15T12:32:06;13.70;;;9.05;;
54853;SDS011;40747;49.480;8.658;2023-02-15T12:34:36;28.60;;;11.80;;
54853;SDS011;40747;49.480;8.658;2023-02-15T12:37:09;26.63;;;11.60;;
54853;SDS011;40747;49.480;8.658;2023-02-15T12:39:41;23.02;;;11.65;;
54853;SDS011;40747;49.480;8.658;2023-02-15T12:42:17;23.35;;;10.23;;
54853;SDS011;40747;49.480;8.658;2023-02-15T12:47:46;22.33;;;10.98;;
54853;SDS011;40747;49.480;8.658;2023-02-15T12:50:41;17.75;;;9.93;;
54853;SDS011;40747;49.480;8.658;2023-02-15T12:56:03;20.38;;;11.38;;
54853;SDS011;40747;49.480;8.658;2023-02-15T12:58:34;20.05;;;8.90;;
54853;SDS011;40747;49.480;8.658;2023-02-15T13:03:35;15.73;;;10.07;;
54853;SDS011;40747;49.480;8.658;2023-02-15T13:06:02;19.55;;;10.82;;
54853;SDS011;40747;49.480;8.658;2023-02-15T13:08:34;16.42;;;10.50;;
54853;SDS011;40747;49.480;8.658;2023-02-15T13:11:11;23.20;;;11.48;;
54853;SDS011;40747;49.480;8.658;2023-02-15T13:13:55;20.05;;;10.45;;
54853;SDS011;40747;49.480;8.658;2023-02-15T13:16:33;14.20;;;8.40;;
54853;SDS011;40747;49.480;8.658;2023-02-15T13:19:12;15.98;;;9.05;;
54853;SDS011;40747;49.480;8.658;2023-02-15T13:21:52;20.83;;;10.10;;
54853;SDS011;40747;49.480;8.658;2023-02-15T13:25:03;21.77;;;10.85;;
54853;SDS011;40747;49.480;8.658;2023-02-15T13:27:15;16.00;;;10.70;;
54853;SDS011;40747;49.480;8.658;2023-02-15T13:29:46;21.35;;;10.15;;
54853;SDS011;40747;49.480;8.658;2023-02-15T13:32:28;24.25;;;10.85;;
54853;SDS011;40747;49.480;8.658;2023-02-15T13:34:58;20.30;;;11.07;;
54853;SDS011;40747;49.480;8.658;2023-02-15T13:40:15;19.92;;;11.65;;
54853;SDS011;40747;49.480;8.658;2023-02-15T13:42:59;20.15;;;11.52;;
54853;SDS011;40747;49.480;8.658;2023-02-15T13:45:38;19.30;;;11.85;;
54853;SDS011;40747;49.480;8.658;2023-02-15T13:51:03;19.83;;;10.93;;
54853;SDS011;40747;49.480;8.658;2023-02-15T13:56:27;18.25;;;11.65;;
54853;SDS011;40747;49.480;8.658;2023-02-15T13:59:03;25.02;;;11.68;;
54853;SDS011;40747;49.480;8.658;2023-02-15T14:01:45;25.77;;;10.55;;
54853;SDS011;40747;49.480;8.658;2023-02-15T14:04:22;14.48;;;10.25;;
54853;SDS011;40747;49.480;8.658;2023-02-15T14:07:10;15.68;;;9.23;;
54853;SDS011;40747;49.480;8.658;2023-02-15T14:12:42;20.35;;;9.82;;
54853;SDS011;40747;49.480;8.658;2023-02-15T14:15:36;17.70;;;9.52;;
54853;SDS011;40747;49.480;8.658;2023-02-15T14:26:41;27.13;;;13.73;;
54853;SDS011;40747;49.480;8.658;2023-02-15T14:31:54;28.83;;;13.73;;
54853;SDS011;40747;49.480;8.658;2023-02-15T14:34:36;31.52;;;16.15;;
54853;SDS011;40747;49.480;8.658;2023-02-15T14:39:38;20.15;;;11.27;;
54853;SDS011;40747;49.480;8.658;2023-02-15T14:48:03;40.60;;;16.92;;
54853;SDS011;40747;49.480;8.658;2023-02-15T14:50:37;36.90;;;18.38;;
54853;SDS011;40747;49.480;8.658;2023-02-15T15:01:16;38.83;;;18.02;;
54853;SDS011;40747;49.480;8.658;2023-02-15T15:03:58;30.70;;;15.00;;
54853;SDS011;40747;49.480;8.658;2023-02-15T15:06:28;24.33;;;13.50;;
54853;SDS011;40747;49.480;8.658;2023-02-15T15:09:42;42.70;;;19.13;;
54853;SDS011;40747;49.480;8.658;2023-02-15T15:11:48;40.08;;;17.98;;
54853;SDS011;40747;49.480;8.658;2023-02-15T15:14:36;40.47;;;17.88;;
54853;SDS011;40747;49.480;8.658;2023-02-15T15:17:03;41.08;;;19.77;;
54853;SDS011;40747;49.480;8.658;2023-02-15T15:22:22;13.40;;;7.43;;
54853;SDS011;40747;49.480;8.658;2023-02-15T15:24:53;34.10;;;18.10;;
54853;SDS011;40747;49.480;8.658;2023-02-15T15:27:57;34.50;;;16.85;;
54853;SDS011;40747;49.480;8.658;2023-02-15T15:32:51;42.20;;;20.48;;
54853;SDS011;40747;49.480;8.658;2023-02-15T15:44:08;38.25;;;19.02;;
54853;SDS011;40747;49.480;8.658;2023-02-15T15:49:33;36.03;;;17.67;;
54853;SDS011;40747;49.480;8.658;2023-02-15T15:52:01;44.78;;;19.60;;
54853;SDS011;40747;49.480;8.658;2023-02-15T15:54:34;38.22;;;17.77;;
54853;SDS011;40747;49.480;8.658;2023-02-15T15:57:04;34.17;;;15.88;;
54853;SDS011;40747;49.480;8.658;2023-02-15T15:59:32;42.25;;;19.35;;
54853;SDS011;40747;49.480;8.658;2023-02-15T16:02:11;44.70;;;21.70;;
54853;SDS011;40747;49.480;8.658;2023-02-15T16:04:41;43.67;;;20.48;;
54853;SDS011;40747;49.480;8.658;2023-02-15T16:07:25;44.83;;;21.27;;
54853;SDS011;40747;49.480;8.658;2023-02-15T16:12:21;46.08;;;19.33;;
54853;SDS011;40747;49.480;8.658;2023-02-15T16:14:46;51.58;;;23.83;;
54853;SDS011;40747;49.480;8.658;2023-02-15T16:17:25;47.03;;;20.80;;
54853;SDS011;40747;49.480;8.658;2023-02-15T16:20:06;56.55;;;24.60;;
54853;SDS011;40747;49.480;8.658;2023-02-15T16:22:40;52.72;;;25.25;;
54853;SDS011;40747;49.480;8.658;2023-02-15T16:25:21;54.15;;;24.38;;
54853;SDS011;40747;49.480;8.658;2023-02-15T16:27:48;60.05;;;26.88;;
54853;SDS011;40747;49.480;8.658;2023-02-15T16:30:20;55.78;;;24.75;;
54853;SDS011;40747;49.480;8.658;2023-02-15T16:32:52;52.50;;;23.52;;
54853;SDS011;40747;49.480;8.658;2023-02-15T16:35:19;57.00;;;25.20;;
54853;SDS011;40747;49.480;8.658;2023-02-15T16:37:46;58.85;;;25.52;;
54853;SDS011;40747;49.480;8.658;2023-02-15T16:42:51;60.65;;;24.45;;
54853;SDS011;40747;49.480;8.658;2023-02-15T16:45:30;46.25;;;21.60;;
54853;SDS011;40747;49.480;8.658;2023-02-15T16:48:02;49.95;;;22.45;;
54853;SDS011;40747;49.480;8.658;2023-02-15T16:50:34;50.47;;;21.05;;
54853;SDS011;40747;49.480;8.658;2023-02-15T16:53:03;48.63;;;20.38;;
54853;SDS011;40747;49.480;8.658;2023-02-15T16:55:35;39.97;;;19.63;;
54853;SDS011;40747;49.480;8.658;2023-02-15T16:58:04;49.05;;;19.75;;
54853;SDS011;40747;49.480;8.658;2023-02-15T17:00:33;58.15;;;24.60;;
54853;SDS011;40747;49.480;8.658;2023-02-15T17:03:02;57.17;;;23.35;;
54853;SDS011;40747;49.480;8.658;2023-02-15T17:08:15;52.50;;;24.23;;
54853;SDS011;40747;49.480;8.658;2023-02-15T17:11:00;44.17;;;19.48;;
54853;SDS011;40747;49.480;8.658;2023-02-15T17:13:29;54.13;;;22.60;;
54853;SDS011;40747;49.480;8.658;2023-02-15T17:18:24;56.95;;;25.00;;
54853;SDS011;40747;49.480;8.658;2023-02-15T17:20:54;67.53;;;29.83;;
54853;SDS011;40747;49.480;8.658;2023-02-15T17:23:31;63.97;;;26.35;;
54853;SDS011;40747;49.480;8.658;2023-02-15T17:25:58;58.03;;;26.63;;
54853;SDS011;40747;49.480;8.658;2023-02-15T17:28:30;50.45;;;20.60;;
54853;SDS011;40747;49.480;8.658;2023-02-15T17:30:56;66.40;;;29.48;;
54853;SDS011;40747;49.480;8.658;2023-02-15T17:33:24;66.47;;;28.70;;
54853;SDS011;40747;49.480;8.658;2023-02-15T17:36:11;58.90;;;23.60;;
54853;SDS011;40747;49.480;8.658;2023-02-15T17:38:58;51.38;;;22.67;;